Time;durP1;ratioP1;P1;durP2;ratioP2;P2;SDS_P1;SDS_P2;PMS_P1;PMS_P2;Temp;Humidity;BMP_temperature;BMP_pressure;BME280_temperature;BME280_humidity;BME280_pressure;Samples;Min_cycle;Max_cycle;Signal;HPM_P1;HPM_P2
2024/01/14 00:01:06;;;;;;;5.30;2.80;;;;;;;;;;43467;272;3032062;-32
2024/01/14 00:03:24;;;;;;;4.80;2.50;;;;;;;;;;43478;276;3031861;-32
2024/01/14 00:05:10;;;;;;;5.20;2.70;;;;;;;;;;43479;276;3031830;-32
2024/01/14 00:06:55;;;;;;;5.50;2.70;;;;;;;;;;43764;287;3031422;-32
2024/01/14 00:08:40;;;;;;;5.00;2.80;;;;;;;;;;43457;272;3030966;-32
2024/01/14 00:10:27;;;;;;;5.10;2.70;;;;;;;;;;43457;280;3031779;-32
2024/01/14 00:12:12;;;;;;;5.30;2.80;;;;;;;;;;43458;268;3030983;-32
2024/01/14 00:14:00;;;;;;;5.40;2.70;;;;;;;;;;43465;268;3031548;-32
2024/01/14 00:15:46;;;;;;;4.70;2.60;;;;;;;;;;43502;275;3031357;-32
2024/01/14 00:17:31;;;;;;;4.40;2.70;;;;;;;;;;43462;272;3031733;-32
2024/01/14 00:19:18;;;;;;;5.00;2.80;;;;;;;;;;43490;272;3031117;-32
2024/01/14 00:21:05;;;;;;;4.50;2.60;;;;;;;;;;43473;268;3031171;-32
2024/01/14 00:22:49;;;;;;;5.00;2.70;;;;;;;;;;43620;268;3031796;-32
2024/01/14 00:24:34;;;;;;;5.60;3.10;;;;;;;;;;43465;280;3031266;-32
2024/01/14 00:26:20;;;;;;;5.30;2.70;;;;;;;;;;43463;280;3031274;-32
2024/01/14 00:28:06;;;;;;;4.40;2.60;;;;;;;;;;43456;287;3032178;-32
2024/01/14 00:29:51;;;;;;;5.10;2.70;;;;;;;;;;43473;288;3031684;-32
2024/01/14 00:31:36;;;;;;;5.00;2.80;;;;;;;;;;43429;272;3032129;-32
2024/01/14 00:33:23;;;;;;;4.60;2.60;;;;;;;;;;43485;279;3032096;-32
2024/01/14 00:35:11;;;;;;;4.90;2.80;;;;;;;;;;43640;276;3031359;-32
2024/01/14 00:36:56;;;;;;;4.90;2.60;;;;;;;;;;43654;272;3031973;-32
2024/01/14 00:38:40;;;;;;;4.50;2.60;;;;;;;;;;43464;272;3031018;-32
2024/01/14 00:40:25;;;;;;;4.70;2.50;;;;;;;;;;43455;279;3031464;-32
2024/01/14 00:42:10;;;;;;;4.90;2.50;;;;;;;;;;43449;272;3031405;-32
2024/01/14 00:43:55;;;;;;;5.30;2.60;;;;;;;;;;43472;272;3031844;-32
2024/01/14 00:45:41;;;;;;;5.10;2.50;;;;;;;;;;43462;272;3031853;-32
2024/01/14 00:47:30;;;;;;;5.80;3.20;;;;;;;;;;43475;279;3031256;-32
2024/01/14 00:49:17;;;;;;;5.80;2.80;;;;;;;;;;43489;279;3032128;-32
2024/01/14 00:51:05;;;;;;;4.70;2.40;;;;;;;;;;44156;276;3031211;-32
2024/01/14 00:52:51;;;;;;;4.70;2.60;;;;;;;;;;43895;276;3038009;-32
2024/01/14 00:54:39;;;;;;;4.50;2.50;;;;;;;;;;43465;272;3031383;-32
2024/01/14 00:56:24;;;;;;;4.30;2.50;;;;;;;;;;43436;272;3031687;-32
2024/01/14 00:58:08;;;;;;;4.70;2.40;;;;;;;;;;43457;275;3031348;-32
2024/01/14 00:59:58;;;;;;;4.70;2.60;;;;;;;;;;43465;279;3031219;-32
2024/01/14 01:01:43;;;;;;;5.00;2.50;;;;;;;;;;44141;272;3030978;-32
2024/01/14 01:03:28;;;;;;;4.60;2.60;;;;;;;;;;44202;268;3031490;-32
2024/01/14 01:05:14;;;;;;;4.70;2.40;;;;;;;;;;44073;279;3030784;-32
2024/01/14 01:07:00;;;;;;;4.30;2.20;;;;;;;;;;43198;268;3032015;-32
2024/01/14 01:08:45;;;;;;;4.40;2.40;;;;;;;;;;43434;271;3031390;-32
2024/01/14 01:10:31;;;;;;;5.00;2.80;;;;;;;;;;43463;272;3031776;-32
2024/01/14 01:12:17;;;;;;;4.20;2.40;;;;;;;;;;43458;288;3031682;-32
2024/01/14 01:14:01;;;;;;;4.40;2.40;;;;;;;;;;43466;272;3032213;-32
2024/01/14 01:15:46;;;;;;;4.20;2.30;;;;;;;;;;43442;272;3031026;-32
2024/01/14 01:17:33;;;;;;;4.50;2.50;;;;;;;;;;43458;280;3032133;-32
2024/01/14 01:19:22;;;;;;;4.70;2.30;;;;;;;;;;43455;276;3031696;-32
2024/01/14 01:21:09;;;;;;;4.50;2.40;;;;;;;;;;43485;279;3031596;-32
2024/01/14 01:22:53;;;;;;;4.50;2.40;;;;;;;;;;44057;276;3031837;-32
2024/01/14 01:24:40;;;;;;;4.50;2.60;;;;;;;;;;43466;276;3031319;-32
2024/01/14 01:26:25;;;;;;;4.30;2.50;;;;;;;;;;43439;279;3031617;-32
2024/01/14 01:28:11;;;;;;;4.60;2.30;;;;;;;;;;43466;279;3030944;-32
2024/01/14 01:29:57;;;;;;;4.80;2.70;;;;;;;;;;43457;288;3032087;-32
2024/01/14 01:31:42;;;;;;;4.30;2.40;;;;;;;;;;43467;279;3031314;-32
2024/01/14 01:33:37;;;;;;;4.60;2.60;;;;;;;;;;43457;276;3038952;-32
2024/01/14 01:35:23;;;;;;;4.20;2.60;;;;;;;;;;43473;279;3031663;-32
2024/01/14 01:37:08;;;;;;;5.30;2.70;;;;;;;;;;43457;279;3031517;-32
2024/01/14 01:38:53;;;;;;;4.90;2.40;;;;;;;;;;44139;279;3030994;-32
2024/01/14 01:40:37;;;;;;;4.40;2.40;;;;;;;;;;44208;276;3031660;-32
2024/01/14 01:42:22;;;;;;;4.30;2.40;;;;;;;;;;44191;280;3031424;-32
2024/01/14 01:44:07;;;;;;;4.60;2.40;;;;;;;;;;44186;279;3038159;-32
2024/01/14 01:45:52;;;;;;;4.80;2.70;;;;;;;;;;44184;268;3031426;-32
2024/01/14 01:47:39;;;;;;;4.60;2.50;;;;;;;;;;43454;280;3031899;-32
2024/01/14 01:49:27;;;;;;;4.30;2.40;;;;;;;;;;44089;287;3031060;-32
2024/01/14 01:51:13;;;;;;;4.40;2.30;;;;;;;;;;43482;279;3031865;-32
2024/01/14 01:53:00;;;;;;;4.20;2.20;;;;;;;;;;43449;276;3031732;-32
2024/01/14 01:54:48;;;;;;;4.30;2.40;;;;;;;;;;43447;280;3031400;-32
2024/01/14 01:56:35;;;;;;;4.50;2.40;;;;;;;;;;43472;279;3031416;-32
2024/01/14 01:58:23;;;;;;;5.20;2.60;;;;;;;;;;43476;280;3032773;-32
2024/01/14 02:00:11;;;;;;;4.50;2.60;;;;;;;;;;43491;280;3031645;-32
2024/01/14 02:01:57;;;;;;;4.60;2.20;;;;;;;;;;44151;268;3031986;-32
2024/01/14 02:03:42;;;;;;;4.20;2.30;;;;;;;;;;44133;268;3031769;-32
2024/01/14 02:05:27;;;;;;;4.30;2.40;;;;;;;;;;44111;280;3031423;-32
2024/01/14 02:07:13;;;;;;;4.40;2.60;;;;;;;;;;44128;280;3031798;-32
2024/01/14 02:09:01;;;;;;;4.20;2.30;;;;;;;;;;43479;272;3031482;-32
2024/01/14 02:10:48;;;;;;;4.60;2.40;;;;;;;;;;43471;272;3031667;-32
2024/01/14 02:12:32;;;;;;;4.30;2.30;;;;;;;;;;43467;280;3031724;-32
2024/01/14 02:14:18;;;;;;;4.30;2.50;;;;;;;;;;44095;276;3031569;-32
2024/01/14 02:16:06;;;;;;;4.90;2.60;;;;;;;;;;43469;280;3031751;-32
2024/01/14 02:17:51;;;;;;;4.60;2.60;;;;;;;;;;43806;279;3030872;-32
2024/01/14 02:19:36;;;;;;;4.10;2.20;;;;;;;;;;43484;268;3031244;-32
2024/01/14 02:21:27;;;;;;;4.60;2.50;;;;;;;;;;43439;279;3031359;-32
2024/01/14 02:23:16;;;;;;;4.30;2.30;;;;;;;;;;44174;280;3031308;-32
2024/01/14 02:25:01;;;;;;;4.40;2.30;;;;;;;;;;43509;268;3038710;-32
2024/01/14 02:26:48;;;;;;;4.10;2.20;;;;;;;;;;43438;280;3032117;-32
2024/01/14 02:28:33;;;;;;;4.00;2.40;;;;;;;;;;44203;276;3030770;-32
2024/01/14 02:30:19;;;;;;;4.10;2.30;;;;;;;;;;43512;280;3031769;-32
2024/01/14 02:32:07;;;;;;;4.00;2.10;;;;;;;;;;43469;287;3031692;-32
2024/01/14 02:33:52;;;;;;;4.50;2.20;;;;;;;;;;43439;279;3030859;-32
2024/01/14 02:35:39;;;;;;;4.40;2.30;;;;;;;;;;43461;279;3033773;-32
2024/01/14 02:37:28;;;;;;;4.20;2.30;;;;;;;;;;43461;279;3032044;-32
2024/01/14 02:39:16;;;;;;;4.30;2.30;;;;;;;;;;43473;279;3031587;-33
2024/01/14 02:41:01;;;;;;;4.50;2.20;;;;;;;;;;43486;264;3031379;-33
2024/01/14 02:42:46;;;;;;;4.30;2.40;;;;;;;;;;43474;279;3031341;-33
2024/01/14 02:44:30;;;;;;;4.90;2.20;;;;;;;;;;43439;279;3031993;-33
2024/01/14 02:46:17;;;;;;;4.30;2.30;;;;;;;;;;43462;268;3031670;-33
2024/01/14 02:48:02;;;;;;;4.10;2.30;;;;;;;;;;43461;279;3031280;-33
2024/01/14 02:49:49;;;;;;;4.40;2.40;;;;;;;;;;43497;279;3031924;-33
2024/01/14 02:51:35;;;;;;;4.20;2.20;;;;;;;;;;43448;279;3031853;-33
2024/01/14 02:53:21;;;;;;;3.70;2.10;;;;;;;;;;43467;272;3032054;-33
2024/01/14 02:55:08;;;;;;;4.10;2.20;;;;;;;;;;43464;279;3031350;-33
2024/01/14 02:56:53;;;;;;;3.80;2.00;;;;;;;;;;43620;272;3031215;-33
2024/01/14 02:58:44;;;;;;;4.20;2.10;;;;;;;;;;43471;288;3032371;-33
2024/01/14 03:00:33;;;;;;;4.50;2.30;;;;;;;;;;43478;268;3031839;-33
2024/01/14 03:02:19;;;;;;;4.10;2.10;;;;;;;;;;43462;268;3031609;-33
2024/01/14 03:04:07;;;;;;;4.20;2.30;;;;;;;;;;43454;268;3031641;-33
2024/01/14 03:05:52;;;;;;;4.20;2.40;;;;;;;;;;43570;287;3038293;-33
2024/01/14 03:07:40;;;;;;;4.20;2.30;;;;;;;;;;43433;279;3032300;-33
2024/01/14 03:09:25;;;;;;;3.90;2.00;;;;;;;;;;43471;279;3031792;-33
2024/01/14 03:11:10;;;;;;;3.80;2.00;;;;;;;;;;43447;272;3031237;-33
2024/01/14 03:12:57;;;;;;;3.80;2.10;;;;;;;;;;43471;272;3032535;-33
2024/01/14 03:14:42;;;;;;;3.70;2.00;;;;;;;;;;43449;272;3031089;-33
2024/01/14 03:16:29;;;;;;;3.90;2.20;;;;;;;;;;43462;268;3037519;-33
2024/01/14 03:18:16;;;;;;;3.80;2.00;;;;;;;;;;43482;279;3031674;-33
2024/01/14 03:20:02;;;;;;;3.80;2.00;;;;;;;;;;43467;272;3031527;-33
2024/01/14 03:21:47;;;;;;;3.70;2.10;;;;;;;;;;43448;287;3031471;-33
2024/01/14 03:23:34;;;;;;;4.00;2.10;;;;;;;;;;43461;272;3032275;-33
2024/01/14 03:25:19;;;;;;;3.80;1.90;;;;;;;;;;43454;275;3031355;-33
2024/01/14 03:27:04;;;;;;;3.90;2.00;;;;;;;;;;43473;287;3032128;-33
2024/01/14 03:28:49;;;;;;;4.30;2.00;;;;;;;;;;43513;272;3031465;-33
2024/01/14 03:30:36;;;;;;;3.90;2.00;;;;;;;;;;43460;279;3031327;-33
2024/01/14 03:32:21;;;;;;;4.10;1.90;;;;;;;;;;43452;279;3031308;-33
2024/01/14 03:34:07;;;;;;;3.80;2.10;;;;;;;;;;43450;279;3031520;-33
2024/01/14 03:35:55;;;;;;;3.60;1.90;;;;;;;;;;43461;272;3031505;-33
2024/01/14 03:37:40;;;;;;;4.10;2.10;;;;;;;;;;43454;276;3031467;-33
2024/01/14 03:39:26;;;;;;;3.60;1.90;;;;;;;;;;43463;279;3031466;-33
2024/01/14 03:41:11;;;;;;;4.20;2.10;;;;;;;;;;44189;268;3031283;-33
2024/01/14 03:42:56;;;;;;;3.90;2.30;;;;;;;;;;43684;279;3031266;-33
2024/01/14 03:44:41;;;;;;;3.60;1.80;;;;;;;;;;43450;272;3031670;-33
2024/01/14 03:46:26;;;;;;;3.90;2.10;;;;;;;;;;43431;271;3031432;-33
2024/01/14 03:48:11;;;;;;;4.20;2.10;;;;;;;;;;43475;279;3031986;-33
2024/01/14 03:49:57;;;;;;;3.90;1.90;;;;;;;;;;43476;279;3033839;-33
2024/01/14 03:51:46;;;;;;;4.40;2.00;;;;;;;;;;43459;264;3031446;-33
2024/01/14 03:53:30;;;;;;;3.90;1.90;;;;;;;;;;43456;272;3031933;-33
2024/01/14 03:55:17;;;;;;;4.60;1.90;;;;;;;;;;43466;279;3031224;-33
2024/01/14 03:57:02;;;;;;;4.10;2.00;;;;;;;;;;43447;276;3031793;-33
2024/01/14 03:58:48;;;;;;;5.70;1.80;;;;;;;;;;43466;272;3031282;-33
2024/01/14 04:00:33;;;;;;;3.80;1.80;;;;;;;;;;43468;272;3031663;-32
2024/01/14 04:02:18;;;;;;;3.60;1.80;;;;;;;;;;43476;268;3032351;-32
2024/01/14 04:04:24;;;;;;;3.80;1.90;;;;;;;;;;43456;268;3031441;-33
2024/01/14 04:06:11;;;;;;;4.10;1.80;;;;;;;;;;43453;272;3031783;-33
2024/01/14 04:07:55;;;;;;;3.90;1.90;;;;;;;;;;44176;276;3031516;-33
2024/01/14 04:09:40;;;;;;;4.10;2.00;;;;;;;;;;43581;279;3031401;-32
2024/01/14 04:11:27;;;;;;;4.10;1.90;;;;;;;;;;43481;268;3032453;-32
2024/01/14 04:13:15;;;;;;;3.60;1.90;;;;;;;;;;43482;272;3031612;-33
2024/01/14 04:15:00;;;;;;;4.30;1.80;;;;;;;;;;43542;279;3031906;-32
2024/01/14 04:16:47;;;;;;;4.50;2.10;;;;;;;;;;43461;271;3031126;-32
2024/01/14 04:18:33;;;;;;;3.70;1.90;;;;;;;;;;43479;272;3031545;-32
2024/01/14 04:20:19;;;;;;;4.00;1.90;;;;;;;;;;43454;288;3031590;-32
2024/01/14 04:22:05;;;;;;;3.80;1.70;;;;;;;;;;43486;268;3031392;-33
2024/01/14 04:23:50;;;;;;;4.40;2.00;;;;;;;;;;43556;272;3031162;-33
2024/01/14 04:25:36;;;;;;;3.80;1.70;;;;;;;;;;43460;272;3030942;-33
2024/01/14 04:27:20;;;;;;;3.90;1.80;;;;;;;;;;43462;279;3031319;-33
2024/01/14 04:29:08;;;;;;;3.80;1.90;;;;;;;;;;43463;272;3031831;-33
2024/01/14 04:30:53;;;;;;;3.90;1.70;;;;;;;;;;43484;268;3030965;-33
2024/01/14 04:32:39;;;;;;;3.30;1.70;;;;;;;;;;43468;272;3031169;-33
2024/01/14 04:34:24;;;;;;;3.90;1.70;;;;;;;;;;43471;288;3031159;-33
2024/01/14 04:36:10;;;;;;;3.90;1.80;;;;;;;;;;43494;287;3031241;-33
2024/01/14 04:37:54;;;;;;;4.00;2.10;;;;;;;;;;43771;288;3031094;-33
2024/01/14 04:39:44;;;;;;;4.50;1.80;;;;;;;;;;43465;268;3031997;-33
2024/01/14 04:41:29;;;;;;;4.20;2.00;;;;;;;;;;43487;276;3032889;-33
2024/01/14 04:43:14;;;;;;;4.00;1.90;;;;;;;;;;43492;268;3031656;-33
2024/01/14 04:44:58;;;;;;;4.10;2.10;;;;;;;;;;43478;279;3031742;-33
2024/01/14 04:46:45;;;;;;;4.00;1.70;;;;;;;;;;43461;279;3032916;-33
2024/01/14 04:48:29;;;;;;;4.50;1.90;;;;;;;;;;43467;288;3038131;-33
2024/01/14 04:50:16;;;;;;;4.10;1.90;;;;;;;;;;43489;288;3031025;-33
2024/01/14 04:52:01;;;;;;;3.90;1.70;;;;;;;;;;43449;288;3031384;-33
2024/01/14 04:53:45;;;;;;;3.70;1.80;;;;;;;;;;43464;272;3031557;-33
2024/01/14 04:55:30;;;;;;;4.20;1.60;;;;;;;;;;43486;272;3031765;-33
2024/01/14 04:57:14;;;;;;;4.00;1.70;;;;;;;;;;43421;279;3031326;-33
2024/01/14 04:58:58;;;;;;;3.40;1.70;;;;;;;;;;43478;272;3032377;-33
2024/01/14 05:00:43;;;;;;;3.50;1.70;;;;;;;;;;43431;272;3032490;-33
2024/01/14 05:02:29;;;;;;;3.70;1.60;;;;;;;;;;43490;272;3032360;-33
2024/01/14 05:04:14;;;;;;;4.50;1.50;;;;;;;;;;43470;279;3030901;-33
2024/01/14 05:06:00;;;;;;;3.30;1.50;;;;;;;;;;44188;276;3031572;-33
2024/01/14 05:07:46;;;;;;;3.90;1.60;;;;;;;;;;43686;272;3031679;-33
2024/01/14 05:09:31;;;;;;;3.50;1.50;;;;;;;;;;43872;276;3032578;-32
2024/01/14 05:11:16;;;;;;;3.80;1.50;;;;;;;;;;43449;268;3031784;-32
2024/01/14 05:13:01;;;;;;;4.10;1.70;;;;;;;;;;43455;272;3031844;-32
2024/01/14 05:14:47;;;;;;;3.60;1.60;;;;;;;;;;43477;268;3031239;-32
2024/01/14 05:16:32;;;;;;;3.90;1.30;;;;;;;;;;43492;272;3032615;-32
2024/01/14 05:18:17;;;;;;;3.30;1.40;;;;;;;;;;43453;275;3031345;-32
2024/01/14 05:20:06;;;;;;;3.70;1.70;;;;;;;;;;43450;272;3031439;-32
2024/01/14 05:21:53;;;;;;;2.80;1.30;;;;;;;;;;43454;275;3032076;-32
2024/01/14 05:23:38;;;;;;;3.20;1.50;;;;;;;;;;43462;268;3031315;-33
2024/01/14 05:25:23;;;;;;;3.30;1.40;;;;;;;;;;43463;275;3031348;-33
2024/01/14 05:27:08;;;;;;;3.20;1.40;;;;;;;;;;43484;268;3031322;-33
2024/01/14 05:28:54;;;;;;;3.30;1.50;;;;;;;;;;43448;268;3031417;-33
2024/01/14 05:30:38;;;;;;;3.20;1.50;;;;;;;;;;43546;280;3032025;-33
2024/01/14 05:32:23;;;;;;;3.30;1.60;;;;;;;;;;43456;268;3031587;-33
2024/01/14 05:34:07;;;;;;;4.30;1.50;;;;;;;;;;43479;279;3031419;-33
2024/01/14 05:35:52;;;;;;;3.70;1.70;;;;;;;;;;43474;279;3031690;-33
2024/01/14 05:37:37;;;;;;;3.30;1.50;;;;;;;;;;43475;268;3031978;-33
2024/01/14 05:39:21;;;;;;;3.50;1.40;;;;;;;;;;43466;268;3031718;-33
2024/01/14 05:41:06;;;;;;;3.70;1.50;;;;;;;;;;43467;279;3031553;-33
2024/01/14 05:42:50;;;;;;;2.90;1.50;;;;;;;;;;43468;288;3031996;-33
2024/01/14 05:44:35;;;;;;;3.60;1.60;;;;;;;;;;43479;279;3031767;-33
2024/01/14 05:46:19;;;;;;;3.40;1.60;;;;;;;;;;43471;268;3031776;-33
2024/01/14 05:48:06;;;;;;;3.30;1.40;;;;;;;;;;43491;280;3032826;-33
2024/01/14 05:49:51;;;;;;;3.00;1.40;;;;;;;;;;43759;279;3037643;-33
2024/01/14 05:51:38;;;;;;;3.30;1.40;;;;;;;;;;43482;264;3032092;-33
2024/01/14 05:53:23;;;;;;;3.70;1.60;;;;;;;;;;43463;280;3031782;-33
2024/01/14 05:55:10;;;;;;;3.40;1.40;;;;;;;;;;43451;279;3031381;-33
2024/01/14 05:56:57;;;;;;;3.00;1.40;;;;;;;;;;43491;279;3031543;-33
2024/01/14 05:58:43;;;;;;;3.10;1.50;;;;;;;;;;43839;276;3031169;-33
2024/01/14 06:00:28;;;;;;;3.80;1.50;;;;;;;;;;43489;280;3030838;-33
2024/01/14 06:02:12;;;;;;;3.30;1.30;;;;;;;;;;43466;280;3031441;-33
2024/01/14 06:03:57;;;;;;;3.40;1.40;;;;;;;;;;43484;272;3031847;-33
2024/01/14 06:05:41;;;;;;;3.60;1.50;;;;;;;;;;43474;288;3031689;-33
2024/01/14 06:07:26;;;;;;;3.50;1.20;;;;;;;;;;43488;268;3031370;-33
2024/01/14 06:09:11;;;;;;;2.80;1.30;;;;;;;;;;43470;271;3031916;-33
2024/01/14 06:10:56;;;;;;;2.80;1.40;;;;;;;;;;43489;272;3033261;-33
2024/01/14 06:12:40;;;;;;;3.00;1.40;;;;;;;;;;43500;287;3031476;-33
2024/01/14 06:14:26;;;;;;;4.20;1.50;;;;;;;;;;43470;287;3031300;-33
2024/01/14 06:16:11;;;;;;;3.40;1.40;;;;;;;;;;43487;276;3032548;-33
2024/01/14 06:17:55;;;;;;;2.80;1.20;;;;;;;;;;43465;280;3031041;-33
2024/01/14 06:19:40;;;;;;;3.30;1.40;;;;;;;;;;43442;272;3032161;-33
2024/01/14 06:21:24;;;;;;;3.30;1.40;;;;;;;;;;43468;272;3031579;-33
2024/01/14 06:23:09;;;;;;;3.40;1.60;;;;;;;;;;43461;279;3031551;-33
2024/01/14 06:24:53;;;;;;;3.40;1.40;;;;;;;;;;43477;279;3030944;-33
2024/01/14 06:26:38;;;;;;;3.50;1.30;;;;;;;;;;43471;280;3031536;-33
2024/01/14 06:28:22;;;;;;;2.90;1.40;;;;;;;;;;43464;272;3031749;-33
2024/01/14 06:30:09;;;;;;;3.20;1.30;;;;;;;;;;43450;279;3031498;-33
2024/01/14 06:31:54;;;;;;;2.70;1.30;;;;;;;;;;43716;276;3031563;-33
2024/01/14 06:33:40;;;;;;;3.30;1.50;;;;;;;;;;43460;275;3032196;-33
2024/01/14 06:35:24;;;;;;;3.20;1.50;;;;;;;;;;43468;279;3031153;-33
2024/01/14 06:37:09;;;;;;;2.80;1.30;;;;;;;;;;43461;279;3031765;-33
2024/01/14 06:38:54;;;;;;;3.50;1.30;;;;;;;;;;43694;279;3031546;-33
2024/01/14 06:40:39;;;;;;;3.00;1.40;;;;;;;;;;43455;276;3033406;-33
2024/01/14 06:42:29;;;;;;;3.50;1.50;;;;;;;;;;43451;268;3031624;-33
2024/01/14 06:44:15;;;;;;;2.90;1.20;;;;;;;;;;43512;268;3031792;-33
2024/01/14 06:45:59;;;;;;;2.70;1.20;;;;;;;;;;43472;272;3030874;-33
2024/01/14 06:47:44;;;;;;;2.60;1.20;;;;;;;;;;43485;279;3031213;-33
2024/01/14 06:49:29;;;;;;;3.10;1.40;;;;;;;;;;43481;279;3030920;-33
2024/01/14 06:51:17;;;;;;;2.90;1.20;;;;;;;;;;43462;279;3037896;-33
2024/01/14 06:53:01;;;;;;;2.80;1.30;;;;;;;;;;43496;280;3031638;-33
2024/01/14 06:54:45;;;;;;;2.90;1.40;;;;;;;;;;43471;285;3031241;-33
2024/01/14 06:56:30;;;;;;;3.50;1.30;;;;;;;;;;43479;272;3031031;-33
2024/01/14 06:58:14;;;;;;;3.20;1.30;;;;;;;;;;43466;268;3031554;-33
2024/01/14 06:59:59;;;;;;;2.70;1.10;;;;;;;;;;43453;272;3031379;-33
2024/01/14 07:01:44;;;;;;;2.90;1.20;;;;;;;;;;44014;288;3032997;-33
2024/01/14 07:03:28;;;;;;;2.60;1.10;;;;;;;;;;43464;288;3031736;-33
2024/01/14 07:05:16;;;;;;;2.80;1.10;;;;;;;;;;43729;287;3032513;-33
2024/01/14 07:07:02;;;;;;;2.60;1.20;;;;;;;;;;43726;280;3032067;-33
2024/01/14 07:08:50;;;;;;;2.30;1.20;;;;;;;;;;43466;279;3032951;-33
2024/01/14 07:10:35;;;;;;;2.80;1.10;;;;;;;;;;43420;280;3031918;-33
2024/01/14 07:12:20;;;;;;;2.60;1.10;;;;;;;;;;43465;288;3031642;-33
2024/01/14 07:14:09;;;;;;;2.50;1.20;;;;;;;;;;43449;280;3031922;-33
2024/01/14 07:15:54;;;;;;;3.30;1.30;;;;;;;;;;43486;272;3032003;-33
2024/01/14 07:17:41;;;;;;;2.70;1.20;;;;;;;;;;43475;272;3032172;-33
2024/01/14 07:19:42;;;;;;;2.90;1.20;;;;;;;;;;43469;272;3031191;-33
2024/01/14 07:21:27;;;;;;;2.80;1.20;;;;;;;;;;44061;272;3030802;-33
2024/01/14 07:23:13;;;;;;;2.70;1.20;;;;;;;;;;43445;279;3031884;-33
2024/01/14 07:25:18;;;;;;;2.70;1.20;;;;;;;;;;43463;272;3031858;-33
2024/01/14 07:27:04;;;;;;;2.90;1.20;;;;;;;;;;43468;283;3031321;-33
2024/01/14 07:28:48;;;;;;;3.00;1.30;;;;;;;;;;43462;279;3031619;-33
2024/01/14 07:30:34;;;;;;;4.10;1.30;;;;;;;;;;43430;279;3030922;-33
2024/01/14 07:32:18;;;;;;;2.50;1.20;;;;;;;;;;43464;272;3037394;-33
2024/01/14 07:34:03;;;;;;;2.50;1.20;;;;;;;;;;43473;268;3031161;-33
2024/01/14 07:35:48;;;;;;;2.90;1.20;;;;;;;;;;43498;279;3032041;-33
2024/01/14 07:37:34;;;;;;;2.80;1.20;;;;;;;;;;43480;288;3031473;-33
2024/01/14 07:39:19;;;;;;;2.40;1.10;;;;;;;;;;43461;272;3033319;-33
2024/01/14 07:41:05;;;;;;;2.80;1.10;;;;;;;;;;43446;276;3031624;-33
2024/01/14 07:42:50;;;;;;;2.70;1.20;;;;;;;;;;43467;279;3031853;-33
2024/01/14 07:44:35;;;;;;;2.50;1.10;;;;;;;;;;43479;280;3031633;-33
2024/01/14 07:46:20;;;;;;;2.70;1.20;;;;;;;;;;43468;279;3031620;-33
2024/01/14 07:48:05;;;;;;;3.00;1.20;;;;;;;;;;43870;272;3031235;-33
2024/01/14 07:49:50;;;;;;;2.90;1.20;;;;;;;;;;44201;276;3031933;-33
2024/01/14 07:51:34;;;;;;;3.00;1.20;;;;;;;;;;43623;276;3031412;-33
2024/01/14 07:53:18;;;;;;;3.10;1.30;;;;;;;;;;43480;268;3032888;-33
2024/01/14 07:55:03;;;;;;;2.90;1.10;;;;;;;;;;43498;272;3031326;-33
2024/01/14 07:56:48;;;;;;;2.80;1.30;;;;;;;;;;43473;272;3031737;-33
2024/01/14 07:58:32;;;;;;;2.90;1.20;;;;;;;;;;43479;279;3030964;-33
2024/01/14 08:00:19;;;;;;;3.10;1.20;;;;;;;;;;43460;279;3031471;-33
2024/01/14 08:02:04;;;;;;;3.00;1.10;;;;;;;;;;43433;268;3032530;-33
2024/01/14 08:03:49;;;;;;;2.90;1.20;;;;;;;;;;43444;279;3031133;-33
2024/01/14 08:05:36;;;;;;;2.50;1.10;;;;;;;;;;43461;279;3031300;-33
2024/01/14 08:07:21;;;;;;;3.70;1.30;;;;;;;;;;43467;279;3031698;-33
2024/01/14 08:09:06;;;;;;;2.50;1.00;;;;;;;;;;43467;279;3032335;-33
2024/01/14 08:10:51;;;;;;;2.50;1.00;;;;;;;;;;43455;280;3031089;-33
2024/01/14 08:12:38;;;;;;;2.60;1.10;;;;;;;;;;43483;279;3032002;-33
2024/01/14 08:14:27;;;;;;;2.00;1.00;;;;;;;;;;43461;279;3032462;-33
2024/01/14 08:16:12;;;;;;;3.00;1.20;;;;;;;;;;43481;280;3031694;-33
2024/01/14 08:17:58;;;;;;;2.90;1.10;;;;;;;;;;43469;268;3031946;-33
2024/01/14 08:19:42;;;;;;;2.40;1.10;;;;;;;;;;43456;279;3032024;-33
2024/01/14 08:21:27;;;;;;;2.50;1.20;;;;;;;;;;43456;272;3031703;-33
2024/01/14 08:23:13;;;;;;;3.10;1.10;;;;;;;;;;43448;276;3031505;-33
2024/01/14 08:25:02;;;;;;;2.40;1.10;;;;;;;;;;43477;272;3031955;-33
2024/01/14 08:26:48;;;;;;;2.50;1.20;;;;;;;;;;43464;280;3030936;-34
2024/01/14 08:28:37;;;;;;;2.70;1.30;;;;;;;;;;43473;279;3031809;-34
2024/01/14 08:30:22;;;;;;;2.90;1.30;;;;;;;;;;43463;279;3032352;-34
2024/01/14 08:32:07;;;;;;;3.00;1.30;;;;;;;;;;43480;272;3031138;-34
2024/01/14 08:33:52;;;;;;;2.90;1.50;;;;;;;;;;43460;272;3039135;-34
2024/01/14 08:35:37;;;;;;;3.00;1.20;;;;;;;;;;43473;288;3031305;-34
2024/01/14 08:37:21;;;;;;;2.70;1.10;;;;;;;;;;43473;287;3031629;-34
2024/01/14 08:39:06;;;;;;;3.00;1.10;;;;;;;;;;43480;264;3031673;-34
2024/01/14 08:40:53;;;;;;;2.70;1.30;;;;;;;;;;43477;279;3032013;-34
2024/01/14 08:42:38;;;;;;;3.20;1.30;;;;;;;;;;43418;272;3031807;-34
2024/01/14 08:44:22;;;;;;;3.40;1.20;;;;;;;;;;43439;272;3032495;-34
2024/01/14 08:46:13;;;;;;;2.70;1.10;;;;;;;;;;43473;272;3031776;-34
2024/01/14 08:48:00;;;;;;;2.70;1.30;;;;;;;;;;43450;272;3031508;-34
2024/01/14 08:49:49;;;;;;;2.80;1.20;;;;;;;;;;43456;279;3031764;-34
2024/01/14 08:51:33;;;;;;;3.00;1.30;;;;;;;;;;43725;287;3031238;-34
2024/01/14 08:53:18;;;;;;;3.00;1.20;;;;;;;;;;43437;275;3032041;-34
2024/01/14 08:55:03;;;;;;;3.00;1.20;;;;;;;;;;43472;268;3031047;-34
2024/01/14 08:56:48;;;;;;;3.70;1.40;;;;;;;;;;43538;279;3031875;-34
2024/01/14 08:58:33;;;;;;;3.20;1.30;;;;;;;;;;43462;272;3031665;-34
2024/01/14 09:00:20;;;;;;;2.60;1.20;;;;;;;;;;43475;279;3032107;-34
2024/01/14 09:02:05;;;;;;;2.70;1.20;;;;;;;;;;43706;268;3032364;-34
2024/01/14 09:03:50;;;;;;;2.70;1.20;;;;;;;;;;43493;279;3031595;-34
2024/01/14 09:05:36;;;;;;;3.10;1.20;;;;;;;;;;43488;279;3032803;-33
2024/01/14 09:07:21;;;;;;;2.90;1.30;;;;;;;;;;43354;279;3031357;-33
2024/01/14 09:09:08;;;;;;;3.20;1.30;;;;;;;;;;43480;279;3031226;-33
2024/01/14 09:10:52;;;;;;;2.50;1.10;;;;;;;;;;43515;272;3031981;-33
2024/01/14 09:12:40;;;;;;;3.30;1.20;;;;;;;;;;43475;280;3031442;-32
2024/01/14 09:14:26;;;;;;;3.10;1.30;;;;;;;;;;43482;279;3032896;-32
2024/01/14 09:16:15;;;;;;;3.30;1.40;;;;;;;;;;43485;264;3031030;-32
2024/01/14 09:18:01;;;;;;;2.80;1.20;;;;;;;;;;43497;279;3031738;-32
2024/01/14 09:19:47;;;;;;;3.20;1.20;;;;;;;;;;43488;272;3030879;-33
2024/01/14 09:21:33;;;;;;;3.20;1.20;;;;;;;;;;43492;279;3031377;-33
2024/01/14 09:23:19;;;;;;;3.30;1.30;;;;;;;;;;43491;272;3031416;-33
2024/01/14 09:25:04;;;;;;;2.80;1.10;;;;;;;;;;43491;272;3038779;-33
2024/01/14 09:26:49;;;;;;;2.70;1.30;;;;;;;;;;44038;272;3031329;-33
2024/01/14 09:28:39;;;;;;;2.80;1.30;;;;;;;;;;43473;272;3031615;-33
2024/01/14 09:30:24;;;;;;;2.50;1.10;;;;;;;;;;43461;272;3031515;-33
2024/01/14 09:32:14;;;;;;;3.50;1.50;;;;;;;;;;43475;272;3031503;-33
2024/01/14 09:34:01;;;;;;;2.60;1.10;;;;;;;;;;43457;280;3031736;-33
2024/01/14 09:35:47;;;;;;;3.30;1.40;;;;;;;;;;43483;280;3031641;-33
2024/01/14 09:37:31;;;;;;;3.00;1.20;;;;;;;;;;43486;280;3031416;-33
2024/01/14 09:39:16;;;;;;;2.80;1.30;;;;;;;;;;43488;280;3031628;-33
2024/01/14 09:41:13;;;;;;;3.00;1.30;;;;;;;;;;43471;272;3032880;-33
2024/01/14 09:43:01;;;;;;;2.90;1.20;;;;;;;;;;43662;280;3031506;-33
2024/01/14 09:44:46;;;;;;;2.30;1.20;;;;;;;;;;43445;276;3031797;-33
2024/01/14 09:46:31;;;;;;;3.00;1.40;;;;;;;;;;43526;279;3031087;-33
2024/01/14 09:48:18;;;;;;;3.40;1.40;;;;;;;;;;43492;268;3032086;-33
2024/01/14 09:50:07;;;;;;;2.90;1.20;;;;;;;;;;43467;272;3031816;-33
2024/01/14 09:51:53;;;;;;;3.10;1.30;;;;;;;;;;44224;268;3031947;-33
2024/01/14 09:53:43;;;;;;;3.00;1.30;;;;;;;;;;43469;280;3032298;-33
2024/01/14 09:55:28;;;;;;;3.20;1.30;;;;;;;;;;43472;288;3031527;-33
2024/01/14 09:57:20;;;;;;;3.50;1.40;;;;;;;;;;43480;268;3031569;-33
2024/01/14 09:59:06;;;;;;;3.20;1.20;;;;;;;;;;43476;280;3031454;-33
2024/01/14 10:00:52;;;;;;;3.20;1.40;;;;;;;;;;43473;272;3031580;-33
2024/01/14 10:02:37;;;;;;;2.80;1.40;;;;;;;;;;43458;280;3031357;-33
2024/01/14 10:04:23;;;;;;;3.00;1.30;;;;;;;;;;43470;272;3031922;-33
2024/01/14 10:06:12;;;;;;;3.30;1.40;;;;;;;;;;43483;284;3031217;-33
2024/01/14 10:07:57;;;;;;;3.80;1.50;;;;;;;;;;44168;279;3031176;-33
2024/01/14 10:09:45;;;;;;;3.40;1.40;;;;;;;;;;43454;268;3031575;-33
2024/01/14 10:11:30;;;;;;;3.70;1.50;;;;;;;;;;43478;272;3031041;-33
2024/01/14 10:13:15;;;;;;;3.50;1.30;;;;;;;;;;43469;272;3031561;-33
2024/01/14 10:15:04;;;;;;;2.90;1.20;;;;;;;;;;43455;272;3030996;-33
2024/01/14 10:16:49;;;;;;;3.10;1.30;;;;;;;;;;44195;276;3031721;-33
2024/01/14 10:18:41;;;;;;;3.30;1.30;;;;;;;;;;43676;279;3032420;-33
2024/01/14 10:20:25;;;;;;;3.20;1.30;;;;;;;;;;43452;279;3031987;-33
2024/01/14 10:22:11;;;;;;;3.10;1.40;;;;;;;;;;43455;268;3032141;-33
2024/01/14 10:24:08;;;;;;;3.00;1.30;;;;;;;;;;43462;272;3031550;-33
2024/01/14 10:25:54;;;;;;;3.50;1.50;;;;;;;;;;43984;279;3031228;-33
2024/01/14 10:27:41;;;;;;;2.90;1.30;;;;;;;;;;43470;279;3031220;-33